Time;durP1;ratioP1;P1;durP2;ratioP2;P2;SDS_P1;SDS_P2;PMS_P1;PMS_P2;Temp;Humidity;BMP_temperature;BMP_pressure;BME280_temperature;BME280_humidity;BME280_pressure;Samples;Min_cycle;Max_cycle;Signal;HPM_P1;HPM_P2
2024/02/11 00:02:09;;;;;;;166.90;86.10;;;;;;;5.61;81.28;95158.02;104679;1264;102166;-77
2024/02/11 00:05:09;;;;;;;167.20;90.10;;;;;;;5.62;81.29;95157.71;104689;1257;101332;-78
2024/02/11 00:08:16;;;;;;;170.30;91.60;;;;;;;5.64;81.30;95155.51;104779;1270;100147;-76
2024/02/11 00:10:57;;;;;;;176.40;90.90;;;;;;;5.65;81.43;95153.02;104568;1260;96994;-77
2024/02/11 00:13:58;;;;;;;170.20;89.50;;;;;;;5.66;81.42;95153.95;104684;1260;97123;-77
2024/02/11 00:17:06;;;;;;;167.50;91.30;;;;;;;5.69;81.42;95152.23;104689;1260;100014;-77
2024/02/11 00:20:02;;;;;;;163.60;86.30;;;;;;;5.71;81.48;95154.37;104604;1266;107712;-76
2024/02/11 00:23:09;;;;;;;164.10;85.90;;;;;;;5.68;81.54;95153.12;104747;1261;99977;-78
2024/02/11 00:26:16;;;;;;;160.20;89.00;;;;;;;5.66;81.58;95151.65;104564;1261;97228;-77
2024/02/11 00:29:23;;;;;;;169.20;88.00;;;;;;;5.67;81.71;95147.43;104651;1256;97125;-78
2024/02/11 00:32:30;;;;;;;165.30;86.00;;;;;;;5.68;81.73;95142.15;104665;1262;102108;-84
2024/02/11 00:35:18;;;;;;;160.70;85.00;;;;;;;5.70;81.77;95142.19;104597;1261;101397;-76
2024/02/11 00:38:24;;;;;;;161.40;89.90;;;;;;;5.69;81.75;95149.55;104609;1270;99168;-75
2024/02/11 00:41:31;;;;;;;153.10;84.30;;;;;;;5.70;81.80;95145.29;104484;1263;97520;-76
2024/02/11 00:44:31;;;;;;;146.70;83.40;;;;;;;5.71;81.90;95147.83;104631;1270;97090;-76
2024/02/11 00:47:28;;;;;;;156.20;81.10;;;;;;;5.72;81.98;95148.70;104656;1262;102295;-77
2024/02/11 00:50:35;;;;;;;150.90;79.90;;;;;;;5.72;82.02;95145.61;104714;1260;100150;-77
2024/02/11 00:53:41;;;;;;;152.20;82.90;;;;;;;5.74;82.11;95144.10;104689;1264;99222;-86
2024/02/11 00:56:54;;;;;;;152.20;79.80;;;;;;;5.74;82.08;95142.17;104647;1260;97803;-77
2024/02/11 01:00:01;;;;;;;151.40;80.90;;;;;;;5.72;82.22;95136.68;104634;1270;98091;-77
2024/02/11 01:03:13;;;;;;;143.20;77.50;;;;;;;5.71;82.25;95135.84;104539;1264;101422;-79
2024/02/11 01:06:19;;;;;;;150.40;82.30;;;;;;;5.71;82.38;95132.29;104657;1263;101481;-76
2024/02/11 01:09:26;;;;;;;143.20;78.80;;;;;;;5.71;82.48;95124.39;104603;1269;100010;-77
2024/02/11 01:12:23;;;;;;;139.80;77.40;;;;;;;5.71;82.59;95121.55;104658;1263;97813;-78
2024/02/11 01:15:30;;;;;;;142.70;75.50;;;;;;;5.72;82.64;95122.69;104744;1260;96667;-77
2024/02/11 01:18:37;;;;;;;142.50;79.70;;;;;;;5.73;82.61;95119.71;104633;1261;101294;-79
2024/02/11 01:21:44;;;;;;;137.90;78.20;;;;;;;5.73;82.77;95117.10;104664;1270;100038;-77
2024/02/11 01:24:50;;;;;;;135.00;74.40;;;;;;;5.74;82.80;95115.68;104713;1267;98582;-77
2024/02/11 01:27:57;;;;;;;142.30;78.40;;;;;;;5.75;82.79;95116.83;104652;1261;97537;-76
2024/02/11 01:31:03;;;;;;;156.60;80.50;;;;;;;5.74;82.91;95114.45;104639;1260;97083;-79
2024/02/11 01:33:56;;;;;;;161.50;82.30;;;;;;;5.72;82.96;95113.50;104710;1260;102264;-84
2024/02/11 01:36:56;;;;;;;169.40;83.40;;;;;;;5.73;83.05;95115.43;104597;1262;100383;-85
2024/02/11 01:39:56;;;;;;;142.20;78.80;;;;;;;5.75;83.13;95113.77;104546;1280;106495;-87
2024/02/11 01:43:02;;;;;;;152.70;80.80;;;;;;;5.75;83.21;95114.02;104574;1269;97899;-85
2024/02/11 01:46:09;;;;;;;148.50;79.90;;;;;;;5.75;83.23;95108.14;104337;1257;97099;-80
2024/02/11 01:49:16;;;;;;;143.80;76.90;;;;;;;5.74;83.30;95106.30;104676;1261;100790;-76
2024/02/11 01:52:10;;;;;;;147.00;77.30;;;;;;;5.75;83.43;95104.77;104689;1270;101388;-80
2024/02/11 01:55:17;;;;;;;140.50;76.60;;;;;;;5.75;83.52;95101.25;104606;1270;99021;-83
2024/02/11 01:58:24;;;;;;;145.40;78.40;;;;;;;5.74;83.60;95099.55;104707;1263;97301;-84
2024/02/11 02:01:31;;;;;;;142.20;76.40;;;;;;;5.71;83.69;95097.41;104628;1257;97142;-77
2024/02/11 02:04:37;;;;;;;148.40;77.80;;;;;;;5.73;83.83;95102.73;104696;1261;101509;-77
2024/02/11 02:07:44;;;;;;;140.80;75.20;;;;;;;5.72;83.87;95103.20;104673;1260;100711;-78
2024/02/11 02:10:44;;;;;;;142.50;75.40;;;;;;;5.71;83.99;95100.50;104530;1257;100088;-80
2024/02/11 02:13:51;;;;;;;146.70;75.70;;;;;;;5.70;84.01;95098.30;104558;1257;96808;-77
2024/02/11 02:16:58;;;;;;;143.80;76.80;;;;;;;5.71;84.15;95098.20;104615;1279;96575;-77
2024/02/11 02:20:06;;;;;;;141.40;74.60;;;;;;;5.71;84.19;95094.66;104699;1257;101028;-75
2024/02/11 02:23:13;;;;;;;135.50;71.70;;;;;;;5.69;84.28;95089.75;104659;1257;101488;-76
2024/02/11 02:26:20;;;;;;;140.70;71.60;;;;;;;5.68;84.33;95089.47;104703;1263;100396;-77
2024/02/11 02:29:27;;;;;;;136.10;73.00;;;;;;;5.70;84.49;95088.05;104712;1260;97487;-78
2024/02/11 02:32:34;;;;;;;131.80;70.20;;;;;;;5.69;84.58;95083.54;104710;1256;97044;-79
2024/02/11 02:35:40;;;;;;;129.30;71.10;;;;;;;5.69;84.60;95074.52;104718;1260;101332;-80
2024/02/11 02:38:47;;;;;;;133.10;70.60;;;;;;;5.71;84.65;95071.80;104704;1263;101160;-82
2024/02/11 02:41:35;;;;;;;140.50;75.20;;;;;;;5.71;84.77;95071.34;104617;1257;99826;-82
2024/02/11 02:44:42;;;;;;;129.80;72.40;;;;;;;5.72;84.78;95069.68;104663;1257;96684;-80
2024/02/11 02:47:32;;;;;;;128.00;73.10;;;;;;;5.71;84.81;95070.27;104721;1257;97217;-86
2024/02/11 02:50:28;;;;;;;134.70;74.00;;;;;;;5.71;84.87;95068.34;104685;1257;102225;-85
2024/02/11 02:53:26;;;;;;;133.30;73.50;;;;;;;5.71;84.95;95066.04;104563;1262;100052;-84
2024/02/11 02:56:34;;;;;;;128.00;74.30;;;;;;;5.72;85.06;95062.84;104570;1260;99568;-85
2024/02/11 02:59:41;;;;;;;127.50;75.10;;;;;;;5.71;85.05;95065.54;104725;1263;97975;-84
2024/02/11 03:02:48;;;;;;;149.30;80.50;;;;;;;5.70;85.15;95063.22;104627;1269;97978;-80
2024/02/11 03:05:55;;;;;;;163.90;87.40;;;;;;;5.68;85.29;95062.43;104627;1271;102435;-80
2024/02/11 03:09:06;;;;;;;151.20;87.10;;;;;;;5.69;85.32;95060.26;104604;1257;101298;-76
2024/02/11 03:12:12;;;;;;;142.20;80.90;;;;;;;5.71;85.37;95054.63;104613;1260;99268;-78
2024/02/11 03:15:19;;;;;;;144.00;83.60;;;;;;;5.73;85.41;95054.39;104627;1261;96575;-77
2024/02/11 03:18:17;;;;;;;144.80;81.70;;;;;;;5.74;85.44;95053.79;104611;1262;97032;-76
2024/02/11 03:21:24;;;;;;;145.10;85.40;;;;;;;5.75;85.50;95056.20;104613;1263;102453;-76
2024/02/11 03:24:30;;;;;;;138.80;78.30;;;;;;;5.75;85.52;95060.48;104573;1271;100122;-81
2024/02/11 03:27:37;;;;;;;140.50;81.20;;;;;;;5.72;85.67;95056.20;104643;1260;99539;-76
2024/02/11 03:30:44;;;;;;;136.90;80.70;;;;;;;5.72;85.71;95052.55;104613;1261;96611;-77
2024/02/11 03:33:50;;;;;;;128.60;75.60;;;;;;;5.73;85.69;95046.85;104664;1262;97548;-77
2024/02/11 03:36:57;;;;;;;142.20;83.80;;;;;;;5.72;85.77;95042.29;104686;1260;102402;-76
2024/02/11 03:39:49;;;;;;;142.90;83.80;;;;;;;5.73;85.89;95037.59;104605;1264;101279;-76
2024/02/11 03:42:56;;;;;;;141.80;83.10;;;;;;;5.72;86.00;95034.42;104581;1275;100097;-77
2024/02/11 03:46:03;;;;;;;138.60;81.30;;;;;;;5.74;86.11;95033.86;104659;1263;96556;-78
2024/02/11 03:49:11;;;;;;;129.80;77.90;;;;;;;5.75;86.26;95032.23;104653;1260;97008;-76
2024/02/11 03:52:00;;;;;;;137.10;81.40;;;;;;;5.76;86.24;95028.55;104674;1258;102088;-76
2024/02/11 03:54:46;;;;;;;135.90;78.40;;;;;;;5.76;86.28;95024.98;104567;1257;101433;-77
2024/02/11 03:57:54;;;;;;;138.90;77.70;;;;;;;5.77;86.30;95020.05;104647;1257;97761;-76
2024/02/11 04:01:01;;;;;;;123.40;72.80;;;;;;;5.77;86.48;95023.66;104617;1275;96601;-77
2024/02/11 04:04:08;;;;;;;127.00;73.60;;;;;;;5.77;86.54;95023.55;104597;1264;97096;-77
2024/02/11 04:07:00;;;;;;;112.50;70.30;;;;;;;5.77;86.69;95022.52;104658;1260;102381;-84
2024/02/11 04:10:02;;;;;;;121.80;72.20;;;;;;;5.79;86.84;95024.33;104649;1260;100069;-83
2024/02/11 04:12:52;;;;;;;119.90;70.60;;;;;;;5.80;86.91;95017.02;104614;1269;100039;-84
2024/02/11 04:16:05;;;;;;;124.10;71.40;;;;;;;5.82;86.93;95011.31;104611;1263;97481;-85
2024/02/11 04:19:02;;;;;;;115.30;68.80;;;;;;;5.85;86.95;95008.33;104654;1261;97604;-83
2024/02/11 04:22:04;;;;;;;102.70;63.30;;;;;;;5.89;87.12;95002.47;104695;1264;101358;-84
2024/02/11 04:24:57;;;;;;;92.40;54.50;;;;;;;5.93;87.16;95001.53;104752;1260;100342;-76
2024/02/11 04:28:07;;;;;;;76.70;48.00;;;;;;;5.97;87.20;94997.21;104651;1260;99802;-85
2024/02/11 04:31:16;;;;;;;65.50;40.60;;;;;;;6.03;87.45;94995.02;104702;1262;97385;-82
2024/02/11 04:34:08;;;;;;;49.70;31.00;;;;;;;6.09;87.69;94988.06;104598;1270;97065;-85
2024/02/11 04:37:08;;;;;;;35.40;22.80;;;;;;;6.17;87.90;94987.01;104703;1261;101215;-85
2024/02/11 04:40:14;;;;;;;30.00;19.10;;;;;;;6.26;88.15;94982.33;104643;1260;101389;-86
2024/02/11 04:43:21;;;;;;;23.50;14.80;;;;;;;6.33;88.36;94976.83;104611;1260;99076;-87
2024/02/11 04:46:27;;;;;;;15.90;11.00;;;;;;;6.39;88.26;94971.19;104608;1261;97906;-78
2024/02/11 04:49:22;;;;;;;6.30;4.40;;;;;;;6.47;88.29;94970.29;104626;1261;97448;-77
2024/02/11 04:52:19;;;;;;;8.40;5.20;;;;;;;6.57;88.34;94968.46;104728;1260;101851;-77
2024/02/11 04:55:27;;;;;;;12.60;6.60;;;;;;;6.66;88.37;94966.65;104697;1256;100448;-77
2024/02/11 04:58:30;;;;;;;8.90;5.50;;;;;;;6.73;88.39;94960.44;104667;1260;100053;-78
2024/02/11 05:01:37;;;;;;;6.90;4.60;;;;;;;6.80;88.31;94953.46;104534;1264;97933;-76
2024/02/11 05:04:47;;;;;;;5.30;3.30;;;;;;;6.91;88.29;94946.77;104650;1269;97146;-79
2024/02/11 05:08:03;;;;;;;3.50;3.00;;;;;;;7.02;88.19;94947.27;104564;1267;101062;-79
2024/02/11 05:11:10;;;;;;;4.30;3.60;;;;;;;7.14;88.01;94947.30;104636;1264;103130;-79
2024/02/11 05:14:17;;;;;;;6.00;4.00;;;;;;;7.25;87.78;94947.48;104603;1262;99591;-83
2024/02/11 05:17:16;;;;;;;5.40;4.00;;;;;;;7.34;87.40;94950.66;104656;1262;96549;-79
2024/02/11 05:20:23;;;;;;;3.40;2.90;;;;;;;7.41;87.11;94945.42;100758;1259;97936;-80
2024/02/11 05:23:30;;;;;;;7.30;3.60;;;;;;;7.46;86.85;94947.54;104671;1273;101815;-76
2024/02/11 05:26:21;;;;;;;6.80;4.20;;;;;;;7.54;86.80;94939.98;104629;1273;99971;-76
2024/02/11 05:29:28;;;;;;;17.20;6.60;;;;;;;7.59;86.56;94940.96;104677;1260;96580;-77
2024/02/11 05:32:35;;;;;;;7.10;3.60;;;;;;;7.63;86.27;94937.17;104663;1261;97072;-79
2024/02/11 05:35:43;;;;;;;3.50;2.60;;;;;;;7.69;85.87;94938.48;104640;1255;101261;-78
2024/02/11 05:38:39;;;;;;;8.00;2.60;;;;;;;7.76;85.54;94940.00;104725;1260;101356;-77
2024/02/11 05:41:36;;;;;;;3.10;2.30;;;;;;;7.82;85.29;94935.13;104606;1270;99271;-79
2024/02/11 05:44:42;;;;;;;3.60;2.20;;;;;;;7.88;85.09;94933.67;104598;1260;97249;-78
2024/02/11 05:47:50;;;;;;;3.70;1.80;;;;;;;7.93;84.79;94931.69;104615;1262;97075;-77
2024/02/11 05:50:49;;;;;;;2.80;1.90;;;;;;;7.99;84.58;94935.06;104542;1258;102217;-78
2024/02/11 05:53:56;;;;;;;12.00;5.40;;;;;;;8.02;84.56;94933.21;104620;1262;100131;-77
2024/02/11 05:57:03;;;;;;;7.50;4.00;;;;;;;8.04;84.25;94940.05;104650;1270;100076;-77
2024/02/11 06:00:12;;;;;;;9.40;3.30;;;;;;;8.07;83.95;94944.92;104601;1260;97494;-86
2024/02/11 06:03:20;;;;;;;4.20;3.00;;;;;;;8.09;83.84;94950.15;104669;1262;97239;-80
2024/02/11 06:06:10;;;;;;;5.80;4.00;;;;;;;8.10;83.70;94955.43;104292;1266;102106;-80
2024/02/11 06:09:12;;;;;;;7.30;4.20;;;;;;;8.13;83.49;94961.79;104422;1268;100122;-80
2024/02/11 06:12:18;;;;;;;6.80;4.10;;;;;;;8.14;83.42;94960.73;104268;1267;108366;-80
2024/02/11 06:15:27;;;;;;;6.20;4.10;;;;;;;8.14;83.40;94960.56;104398;1264;97330;-80
2024/02/11 06:18:34;;;;;;;7.40;2.90;;;;;;;8.13;83.16;94965.44;104303;1267;96930;-79
2024/02/11 06:21:34;;;;;;;6.90;2.80;;;;;;;8.13;83.09;94971.95;104266;1273;102235;-85
2024/02/11 06:24:42;;;;;;;3.60;2.80;;;;;;;8.15;82.98;94972.77;104365;1263;100551;-85
2024/02/11 06:27:49;;;;;;;3.50;1.80;;;;;;;8.17;82.68;94974.41;104356;1263;100042;-83
2024/02/11 06:30:56;;;;;;;4.30;2.30;;;;;;;8.21;82.54;94976.74;104387;1265;96646;-83
2024/02/11 06:34:03;;;;;;;6.70;2.60;;;;;;;8.21;82.49;94976.48;104220;1267;96623;-84
2024/02/11 06:37:10;;;;;;;6.60;4.40;;;;;;;8.21;82.40;94980.56;104374;1268;101943;-86
2024/02/11 06:40:17;;;;;;;5.20;4.00;;;;;;;8.20;82.26;94982.83;104386;1268;100371;-83
2024/02/11 06:43:27;;;;;;;4.50;2.80;;;;;;;8.21;82.18;94978.47;104457;1256;98619;-84
2024/02/11 06:46:34;;;;;;;9.20;4.60;;;;;;;8.24;82.22;94971.67;104673;1260;96673;-80
2024/02/11 06:49:44;;;;;;;4.90;2.90;;;;;;;8.30;82.17;94965.77;104675;1256;97826;-79
2024/02/11 06:52:27;;;;;;;9.10;5.20;;;;;;;8.38;81.77;94960.63;104626;1256;101318;-79
2024/02/11 06:55:27;;;;;;;5.50;3.80;;;;;;;8.44;81.63;94965.27;104639;1261;100062;-79
2024/02/11 06:58:34;;;;;;;6.20;3.80;;;;;;;8.46;81.56;94969.67;104596;1260;98955;-76
2024/02/11 07:01:08;;;;;;;5.20;2.70;;;;;;;8.47;81.53;94973.23;104612;1267;96592;-76
2024/02/11 07:04:05;;;;;;;2.80;2.50;;;;;;;8.49;81.50;94980.35;104748;1260;97173;-77
2024/02/11 07:06:57;;;;;;;3.20;2.80;;;;;;;8.52;81.26;94982.15;104676;1260;103255;-77
2024/02/11 07:10:04;;;;;;;3.50;3.00;;;;;;;8.56;81.21;94974.98;104647;1261;101681;-78
2024/02/11 07:12:55;;;;;;;3.40;2.40;;;;;;;8.59;81.11;94968.05;104616;1272;99930;-77
2024/02/11 07:16:07;;;;;;;3.60;2.60;;;;;;;8.62;81.24;94965.65;104737;1261;97501;-76
2024/02/11 07:19:14;;;;;;;4.00;2.90;;;;;;;8.65;81.26;94965.52;104473;1273;96559;-83
2024/02/11 07:22:03;;;;;;;4.40;3.10;;;;;;;8.68;81.31;94968.35;104699;1256;101364;-79
2024/02/11 07:25:12;;;;;;;4.20;2.80;;;;;;;8.71;81.37;94968.95;104623;1261;100055;-80
2024/02/11 07:28:19;;;;;;;3.60;2.20;;;;;;;8.74;81.24;94971.02;104749;1261;100250;-78
2024/02/11 07:31:26;;;;;;;3.40;2.00;;;;;;;8.76;81.20;94970.34;104688;1260;96653;-82
2024/02/11 07:34:14;;;;;;;4.20;2.40;;;;;;;8.79;80.90;94977.73;104621;1261;96587;-80
2024/02/11 07:37:21;;;;;;;3.60;2.40;;;;;;;8.82;80.77;94975.96;104663;1261;101295;-80
2024/02/11 07:40:31;;;;;;;3.90;2.70;;;;;;;8.87;80.64;94974.38;104765;1261;101162;-81
2024/02/11 07:43:38;;;;;;;7.30;4.00;;;;;;;8.94;80.32;94972.11;104459;1266;109026;-81
2024/02/11 07:46:45;;;;;;;3.60;3.00;;;;;;;8.99;80.00;94968.80;104668;1260;96653;-76
2024/02/11 07:49:44;;;;;;;3.00;2.60;;;;;;;9.05;79.93;94960.34;104655;1261;97067;-77
2024/02/11 07:52:30;;;;;;;3.80;2.40;;;;;;;9.09;79.63;94960.14;104702;1261;101273;-76
2024/02/11 07:55:37;;;;;;;3.50;2.70;;;;;;;9.12;79.36;94961.98;104694;1260;101094;-82
2024/02/11 07:58:37;;;;;;;5.30;3.50;;;;;;;9.13;79.33;94963.72;104673;1262;100130;-80
2024/02/11 08:01:44;;;;;;;5.00;3.30;;;;;;;9.15;79.20;94956.90;104559;1256;96560;-78
2024/02/11 08:04:52;;;;;;;3.90;2.20;;;;;;;9.17;79.16;94948.45;104622;1260;98070;-76
2024/02/11 08:07:59;;;;;;;2.90;2.50;;;;;;;9.18;78.96;94947.00;104662;1274;102235;-77
2024/02/11 08:11:06;;;;;;;2.90;2.20;;;;;;;9.19;78.86;94944.62;104621;1261;108334;-79
2024/02/11 08:14:13;;;;;;;4.70;3.60;;;;;;;9.19;78.49;94943.01;104712;1278;100335;-79
2024/02/11 08:17:20;;;;;;;5.20;3.40;;;;;;;9.20;78.41;94946.73;104605;1260;97919;-78
2024/02/11 08:20:29;;;;;;;6.40;3.90;;;;;;;9.21;78.32;94942.91;104653;1261;99288;-77
2024/02/11 08:23:38;;;;;;;8.20;5.80;;;;;;;9.21;78.21;94940.23;104668;1262;103600;-78
2024/02/11 08:26:45;;;;;;;9.10;5.20;;;;;;;9.21;78.27;94941.09;104641;1262;99204;-76
2024/02/11 08:29:52;;;;;;;8.00;4.80;;;;;;;9.18;78.08;94934.84;104612;1261;100110;-77
2024/02/11 08:32:59;;;;;;;8.20;4.60;;;;;;;9.18;77.88;94924.77;104637;1256;99114;-76
2024/02/11 08:36:06;;;;;;;4.80;3.60;;;;;;;9.18;78.04;94919.16;104735;1262;97869;-84
2024/02/11 08:39:14;;;;;;;7.80;4.10;;;;;;;9.17;77.88;94928.75;104664;1262;103479;-82
2024/02/11 08:42:21;;;;;;;10.90;5.40;;;;;;;9.19;77.76;94925.73;104689;1256;101319;-84
2024/02/11 08:45:17;;;;;;;6.00;4.10;;;;;;;9.22;77.64;94924.46;104678;1262;100209;-80
2024/02/11 08:48:24;;;;;;;5.10;2.90;;;;;;;9.24;77.46;94925.92;104694;1270;98028;-80
2024/02/11 08:51:31;;;;;;;3.00;2.30;;;;;;;9.27;77.20;94925.09;104653;1261;99538;-79
2024/02/11 08:54:38;;;;;;;4.50;2.60;;;;;;;9.31;77.01;94920.98;104740;1256;103156;-83
2024/02/11 08:57:47;;;;;;;3.90;2.10;;;;;;;9.33;76.90;94914.23;104639;1272;101463;-79
2024/02/11 09:00:59;;;;;;;3.40;2.20;;;;;;;9.37;76.85;94917.32;104667;1258;100020;-80
2024/02/11 09:04:06;;;;;;;3.40;2.40;;;;;;;9.41;76.81;94916.52;104558;1262;98844;-76
2024/02/11 09:07:18;;;;;;;3.70;2.80;;;;;;;9.45;76.63;94914.64;104605;1261;98381;-76
2024/02/11 09:10:17;;;;;;;6.00;5.40;;;;;;;9.48;76.48;94912.02;104500;1256;102742;-76
2024/02/11 09:13:24;;;;;;;4.60;2.30;;;;;;;9.50;76.22;94913.20;104585;1261;101544;-84
2024/02/11 09:16:31;;;;;;;4.30;2.00;;;;;;;9.54;76.10;94915.84;104561;1264;99218;-80
2024/02/11 09:19:38;;;;;;;3.60;1.90;;;;;;;9.58;76.12;94912.46;104611;1267;97956;-81
2024/02/11 09:22:39;;;;;;;4.30;2.40;;;;;;;9.60;76.00;94912.86;104738;1261;99147;-79
2024/02/11 09:25:28;;;;;;;6.80;3.60;;;;;;;9.63;75.82;94909.52;104775;1257;103798;-79
2024/02/11 09:28:25;;;;;;;7.00;4.00;;;;;;;9.64;75.79;94908.35;104674;1256;101352;-81
2024/02/11 09:31:32;;;;;;;4.00;2.60;;;;;;;9.67;75.90;94910.61;104678;1271;99965;-76
2024/02/11 09:34:40;;;;;;;6.60;4.10;;;;;;;9.72;75.57;94912.45;104659;1271;97919;-84
2024/02/11 09:37:42;;;;;;;3.50;2.70;;;;;;;9.78;75.45;94917.90;104838;1261;99140;-86
2024/02/11 09:40:48;;;;;;;2.50;1.90;;;;;;;9.82;75.26;94916.30;104693;1263;103258;-87
2024/02/11 09:43:56;;;;;;;3.10;1.80;;;;;;;9.84;74.87;94914.46;104769;1260;100426;-84
2024/02/11 09:46:50;;;;;;;3.00;2.50;;;;;;;9.87;74.90;94918.31;104644;1262;98465;-79
2024/02/11 09:49:48;;;;;;;4.70;3.10;;;;;;;9.92;74.57;94917.87;104674;1261;99272;-79
2024/02/11 09:52:38;;;;;;;4.60;3.00;;;;;;;9.96;74.50;94919.17;104752;1256;98469;-79
2024/02/11 09:55:36;;;;;;;4.20;3.00;;;;;;;10.00;74.51;94920.98;104588;1262;103884;-80
2024/02/11 09:58:43;;;;;;;3.40;2.40;;;;;;;10.04;74.16;94923.98;104723;1262;101377;-80
2024/02/11 10:01:51;;;;;;;3.60;2.90;;;;;;;10.08;73.92;94921.17;104650;1256;99929;-79
2024/02/11 10:04:59;;;;;;;4.60;2.50;;;;;;;10.10;73.63;94919.58;104601;1256;97929;-80
2024/02/11 10:07:52;;;;;;;3.30;3.00;;;;;;;10.13;73.43;94923.46;104642;1262;98418;-82
2024/02/11 10:10:59;;;;;;;3.90;2.20;;;;;;;10.15;73.26;94919.79;104750;1256;102531;-76
2024/02/11 10:14:11;;;;;;;5.50;2.50;;;;;;;10.15;72.88;94917.90;104688;1260;101219;-79
2024/02/11 10:17:17;;;;;;;2.90;2.20;;;;;;;10.16;72.87;94916.27;104492;1269;99555;-81
2024/02/11 10:20:27;;;;;;;4.00;2.30;;;;;;;10.18;72.95;94911.16;104546;1256;97997;-81
2024/02/11 10:23:33;;;;;;;6.20;3.60;;;;;;;10.20;73.11;94909.46;104536;1261;98338;-82
2024/02/11 10:26:40;;;;;;;3.90;2.10;;;;;;;10.22;72.83;94903.65;104576;1276;102638;-84
2024/02/11 10:29:48;;;;;;;5.10;2.40;;;;;;;10.22;72.65;94899.71;104621;1260;101427;-85
2024/02/11 10:32:49;;;;;;;3.60;2.10;;;;;;;10.22;72.58;94894.21;104655;1260;98937;-83
2024/02/11 10:35:56;;;;;;;5.60;2.80;;;;;;;10.24;72.72;94883.81;104712;1257;98015;-83
2024/02/11 10:39:05;;;;;;;4.40;2.70;;;;;;;10.27;72.73;94875.98;104638;1262;98837;-84
2024/02/11 10:42:13;;;;;;;4.60;2.50;;;;;;;10.28;72.65;94871.33;104679;1261;102267;-83
2024/02/11 10:45:23;;;;;;;5.60;3.50;;;;;;;10.28;72.59;94867.73;104698;1262;101362;-83
2024/02/11 10:48:30;;;;;;;3.40;2.00;;;;;;;10.29;72.43;94869.29;104550;1261;99028;-79
2024/02/11 10:51:39;;;;;;;2.10;1.80;;;;;;;10.28;72.37;94869.61;104586;1260;99272;-76
2024/02/11 10:54:47;;;;;;;4.10;1.80;;;;;;;10.28;72.47;94870.36;104387;1266;98401;-78
2024/02/11 10:57:39;;;;;;;3.60;2.40;;;;;;;10.28;72.41;94869.72;104500;1260;102636;-77
2024/02/11 11:00:32;;;;;;;8.80;4.40;;;;;;;10.30;72.31;94864.88;104461;1265;100320;-77
2024/02/11 11:03:39;;;;;;;5.30;2.90;;;;;;;10.31;72.15;94866.92;104436;1276;98776;-76
2024/02/11 11:06:46;;;;;;;2.80;2.10;;;;;;;10.31;71.68;94865.41;104474;1266;98013;-80
2024/02/11 11:09:53;;;;;;;4.10;1.80;;;;;;;10.32;71.82;94867.19;104524;1271;98209;-82
2024/02/11 11:13:09;;;;;;;2.10;1.90;;;;;;;10.32;71.97;94865.95;104432;1265;102614;-88
2024/02/11 11:16:16;;;;;;;2.20;2.00;;;;;;;10.34;71.91;94863.15;104456;1274;101364;-78
2024/02/11 11:19:23;;;;;;;4.00;2.50;;;;;;;10.36;71.84;94860.93;104256;1272;99914;-76
2024/02/11 11:22:30;;;;;;;4.10;2.30;;;;;;;10.37;71.85;94859.06;104451;1264;98200;-77
2024/02/11 11:25:37;;;;;;;3.40;2.40;;;;;;;10.38;71.57;94858.89;104412;1265;99456;-77
2024/02/11 11:28:49;;;;;;;5.30;2.00;;;;;;;10.39;71.62;94860.86;104423;1265;103247;-84
2024/02/11 11:31:58;;;;;;;2.40;2.10;;;;;;;10.40;71.38;94858.16;104035;1270;100401;-76
2024/02/11 11:35:12;;;;;;;5.00;3.50;;;;;;;10.40;71.39;94852.66;104180;1264;108149;-78
2024/02/11 11:38:19;;;;;;;8.90;5.60;;;;;;;10.43;71.46;94847.77;104012;1270;99208;-78
2024/02/11 11:41:18;;;;;;;4.20;2.80;;;;;;;10.45;71.35;94851.80;104152;1270;98446;-76
2024/02/11 11:44:25;;;;;;;6.90;5.10;;;;;;;10.46;71.26;94853.10;104014;1270;103763;-76
2024/02/11 11:47:30;;;;;;;8.90;4.60;;;;;;;10.49;71.52;94853.42;104090;1268;101579;-81
2024/02/11 11:50:30;;;;;;;5.50;3.00;;;;;;;10.53;71.59;94857.77;104104;1270;100023;-80
2024/02/11 11:53:40;;;;;;;4.30;2.30;;;;;;;10.55;71.31;94857.83;104025;1271;99236;-80
2024/02/11 11:56:47;;;;;;;3.20;2.50;;;;;;;10.56;71.28;94856.20;104056;1271;98671;-80
2024/02/11 11:59:30;;;;;;;2.70;2.30;;;;;;;10.59;71.46;94859.98;104143;1271;103468;-79
2024/02/11 12:02:17;;;;;;;;;;;;;;;10.63;71.44;94853.44;104225;1270;101350;-76
2024/02/11 12:05:24;;;;;;;12.00;2.80;;;;;;;10.62;71.29;94848.44;104060;1270;99272;-84
2024/02/11 12:08:31;;;;;;;3.70;2.50;;;;;;;10.63;71.49;94852.35;104338;1261;98100;-81
2024/02/11 12:11:41;;;;;;;3.30;2.50;;;;;;;10.62;71.21;94854.20;104549;1261;98393;-80
2024/02/11 12:14:40;;;;;;;3.40;2.30;;;;;;;10.62;71.14;94848.92;104445;1265;102827;-79
2024/02/11 12:17:47;;;;;;;5.00;3.10;;;;;;;10.64;71.24;94842.80;104451;1266;101263;-79
2024/02/11 12:20:54;;;;;;;8.60;6.30;;;;;;;10.62;71.14;94842.39;104434;1274;98926;-79
2024/02/11 12:23:44;;;;;;;5.80;4.40;;;;;;;10.60;71.11;94838.02;104470;1265;98041;-79
2024/02/11 12:26:51;;;;;;;8.30;4.80;;;;;;;10.61;71.37;94834.73;104359;1266;97968;-82
2024/02/11 12:30:16;;;;;;;9.90;6.60;;;;;;;10.60;71.15;94833.23;104490;1265;102567;-83
2024/02/11 12:33:23;;;;;;;7.60;5.70;;;;;;;10.59;71.09;94828.59;104193;1270;101363;-84
2024/02/11 12:36:30;;;;;;;6.20;4.00;;;;;;;10.58;70.91;94821.79;107183;1266;99240;-84
2024/02/11 12:39:38;;;;;;;4.10;2.50;;;;;;;10.57;71.06;94819.69;103717;1287;98157;-85
2024/02/11 12:42:45;;;;;;;5.90;3.70;;;;;;;10.56;70.91;94816.67;103700;1293;99634;-80
2024/02/11 12:45:52;;;;;;;6.10;3.20;;;;;;;10.57;70.89;94816.39;103643;1276;103367;-78
2024/02/11 12:48:51;;;;;;;4.90;2.80;;;;;;;10.55;70.84;94813.04;103741;1277;100456;-79
2024/02/11 12:51:57;;;;;;;6.30;3.00;;;;;;;10.54;70.85;94809.55;103692;1274;99120;-77
2024/02/11 12:55:04;;;;;;;4.90;3.40;;;;;;;10.53;70.72;94808.63;103789;1277;98115;-76
2024/02/11 12:58:11;;;;;;;19.10;8.80;;;;;;;10.53;70.77;94807.23;103775;1286;98464;-75
2024/02/11 13:01:17;;;;;;;7.40;4.70;;;;;;;10.52;70.82;94807.22;103775;1275;103638;-83
2024/02/11 13:04:17;;;;;;;5.70;2.60;;;;;;;10.51;70.83;94803.94;103751;1276;100592;-79
2024/02/11 13:07:04;;;;;;;5.90;3.40;;;;;;;10.51;70.83;94804.70;103784;1273;98196;-76
2024/02/11 13:10:11;;;;;;;3.50;2.70;;;;;;;10.51;70.53;94804.91;103982;1271;99282;-76
2024/02/11 13:13:19;;;;;;;3.00;1.90;;;;;;;10.51;70.57;94805.62;104241;1274;98627;-76
2024/02/11 13:16:26;;;;;;;5.80;3.20;;;;;;;10.50;70.59;94810.49;104344;1264;103804;-84
2024/02/11 13:19:33;;;;;;;4.00;2.50;;;;;;;10.49;70.49;94810.21;104745;1260;100352;-84
2024/02/11 13:22:39;;;;;;;5.00;2.60;;;;;;;10.49;70.44;94813.35;104653;1262;98996;-76
2024/02/11 13:25:47;;;;;;;4.10;2.40;;;;;;;10.48;70.51;94812.91;104627;1262;97945;-78
2024/02/11 13:28:47;;;;;;;4.30;2.60;;;;;;;10.49;70.51;94817.50;104641;1262;98402;-79
2024/02/11 13:31:54;;;;;;;5.50;2.90;;;;;;;10.46;70.20;94818.47;104806;1256;102661;-75
2024/02/11 13:35:01;;;;;;;6.50;3.00;;;;;;;10.43;70.27;94821.87;104769;1261;100356;-77
2024/02/11 13:38:08;;;;;;;4.00;2.40;;;;;;;10.41;70.34;94829.36;104673;1262;98926;-76
2024/02/11 13:40:59;;;;;;;3.10;2.00;;;;;;;10.39;70.27;94831.21;104609;1257;97943;-75
2024/02/11 13:43:58;;;;;;;3.70;2.20;;;;;;;10.38;70.39;94834.73;104662;1271;98386;-83
2024/02/11 13:47:06;;;;;;;5.70;2.50;;;;;;;10.39;70.43;94833.80;104604;1270;103295;-76
2024/02/11 13:49:56;;;;;;;4.50;2.20;;;;;;;10.39;70.41;94837.56;104621;1262;100404;-75
2024/02/11 13:53:04;;;;;;;6.90;2.90;;;;;;;10.40;70.56;94838.91;104585;1262;100058;-76
2024/02/11 13:56:11;;;;;;;6.50;3.60;;;;;;;10.39;70.38;94839.39;104568;1270;97903;-76
2024/02/11 13:59:18;;;;;;;16.40;9.10;;;;;;;10.38;70.22;94839.31;104587;1267;98309;-77
2024/02/11 14:02:28;;;;;;;15.70;9.20;;;;;;;10.36;70.26;94839.59;104835;1257;103561;-76
2024/02/11 14:05:36;;;;;;;21.80;12.20;;;;;;;10.38;70.19;94837.02;104632;1259;100468;-80
2024/02/11 14:08:43;;;;;;;16.60;7.50;;;;;;;10.38;70.36;94836.39;104616;1262;99310;-80